sensor_id;sensor_type;location;lat;lon;timestamp;temperature;humidity
69324;DHT22;56470;47.350;8.718;2023-07-29T00:00:29;20.15;77.65
69324;DHT22;56470;47.350;8.718;2023-07-29T00:02:55;20.12;77.71
69324;DHT22;56470;47.350;8.718;2023-07-29T00:05:20;20.08;77.44
69324;DHT22;56470;47.350;8.718;2023-07-29T00:07:45;20.09;77.65
69324;DHT22;56470;47.350;8.718;2023-07-29T00:10:10;20.13;77.80
69324;DHT22;56470;47.350;8.718;2023-07-29T00:12:36;20.19;77.91
69324;DHT22;56470;47.350;8.718;2023-07-29T00:15:01;20.22;77.69
69324;DHT22;56470;47.350;8.718;2023-07-29T00:17:26;20.22;77.47
69324;DHT22;56470;47.350;8.718;2023-07-29T00:19:52;20.23;77.39
69324;DHT22;56470;47.350;8.718;2023-07-29T00:22:17;20.22;77.38
69324;DHT22;56470;47.350;8.718;2023-07-29T00:24:42;20.19;77.24
69324;DHT22;56470;47.350;8.718;2023-07-29T00:27:07;20.15;77.28
69324;DHT22;56470;47.350;8.718;2023-07-29T00:29:33;20.12;77.59
69324;DHT22;56470;47.350;8.718;2023-07-29T00:31:58;20.18;77.96
69324;DHT22;56470;47.350;8.718;2023-07-29T00:34:23;20.18;78.32
69324;DHT22;56470;47.350;8.718;2023-07-29T00:36:48;20.15;77.92
69324;DHT22;56470;47.350;8.718;2023-07-29T00:39:14;20.13;77.57
69324;DHT22;56470;47.350;8.718;2023-07-29T00:41:39;20.15;78.01
69324;DHT22;56470;47.350;8.718;2023-07-29T00:44:05;20.16;78.09
69324;DHT22;56470;47.350;8.718;2023-07-29T00:46:32;20.15;77.96
69324;DHT22;56470;47.350;8.718;2023-07-29T00:48:58;20.15;77.99
69324;DHT22;56470;47.350;8.718;2023-07-29T00:51:23;20.12;78.44
69324;DHT22;56470;47.350;8.718;2023-07-29T00:53:49;20.13;78.75
69324;DHT22;56470;47.350;8.718;2023-07-29T00:56:14;20.13;78.80
69324;DHT22;56470;47.350;8.718;2023-07-29T00:58:39;20.13;78.56
69324;DHT22;56470;47.350;8.718;2023-07-29T01:01:05;20.13;78.05
69324;DHT22;56470;47.350;8.718;2023-07-29T01:03:30;20.12;78.10
69324;DHT22;56470;47.350;8.718;2023-07-29T01:11:35;20.04;80.13
69324;DHT22;56470;47.350;8.718;2023-07-29T01:14:34;20.05;80.18
69324;DHT22;56470;47.350;8.718;2023-07-29T01:17:03;20.06;78.33
69324;DHT22;56470;47.350;8.718;2023-07-29T01:22:23;20.08;78.65
69324;DHT22;56470;47.350;8.718;2023-07-29T01:24:49;20.09;78.59
69324;DHT22;56470;47.350;8.718;2023-07-29T01:27:14;20.09;78.43
69324;DHT22;56470;47.350;8.718;2023-07-29T01:29:40;20.02;78.12
69324;DHT22;56470;47.350;8.718;2023-07-29T01:32:11;20.06;78.42
69324;DHT22;56470;47.350;8.718;2023-07-29T01:35:03;20.09;78.72
69324;DHT22;56470;47.350;8.718;2023-07-29T01:37:33;20.04;78.02
69324;DHT22;56470;47.350;8.718;2023-07-29T01:40:00;20.02;78.21
69324;DHT22;56470;47.350;8.718;2023-07-29T01:42:26;20.04;78.45
69324;DHT22;56470;47.350;8.718;2023-07-29T01:44:52;20.06;78.41
69324;DHT22;56470;47.350;8.718;2023-07-29T01:47:17;20.11;78.57
69324;DHT22;56470;47.350;8.718;2023-07-29T01:49:42;20.13;78.64
69324;DHT22;56470;47.350;8.718;2023-07-29T01:52:07;20.13;78.63
69324;DHT22;56470;47.350;8.718;2023-07-29T01:54:33;20.11;78.84
69324;DHT22;56470;47.350;8.718;2023-07-29T01:56:58;20.12;78.72
69324;DHT22;56470;47.350;8.718;2023-07-29T01:59:23;20.12;78.30
69324;DHT22;56470;47.350;8.718;2023-07-29T02:01:49;20.04;78.01
69324;DHT22;56470;47.350;8.718;2023-07-29T02:04:14;19.99;78.34
69324;DHT22;56470;47.350;8.718;2023-07-29T02:06:39;19.96;78.26
69324;DHT22;56470;47.350;8.718;2023-07-29T02:09:05;19.98;78.30
69324;DHT22;56470;47.350;8.718;2023-07-29T02:11:30;19.92;78.33
69324;DHT22;56470;47.350;8.718;2023-07-29T02:13:56;19.94;78.21
69324;DHT22;56470;47.350;8.718;2023-07-29T02:16:22;19.96;78.60
69324;DHT22;56470;47.350;8.718;2023-07-29T02:18:50;20.01;78.95
69324;DHT22;56470;47.350;8.718;2023-07-29T02:21:16;20.04;79.13
69324;DHT22;56470;47.350;8.718;2023-07-29T02:23:41;20.02;78.74
69324;DHT22;56470;47.350;8.718;2023-07-29T02:26:07;20.05;78.89
69324;DHT22;56470;47.350;8.718;2023-07-29T02:28:32;20.08;78.98
69324;DHT22;56470;47.350;8.718;2023-07-29T02:33:44;20.05;78.72
69324;DHT22;56470;47.350;8.718;2023-07-29T02:36:13;20.05;78.92
69324;DHT22;56470;47.350;8.718;2023-07-29T02:38:39;20.05;79.10
69324;DHT22;56470;47.350;8.718;2023-07-29T02:41:05;20.04;78.74
69324;DHT22;56470;47.350;8.718;2023-07-29T02:43:31;20.02;78.72
69324;DHT22;56470;47.350;8.718;2023-07-29T02:45:56;20.08;78.82
69324;DHT22;56470;47.350;8.718;2023-07-29T02:48:21;20.09;78.51
69324;DHT22;56470;47.350;8.718;2023-07-29T02:50:47;20.08;78.37
69324;DHT22;56470;47.350;8.718;2023-07-29T02:53:12;20.02;78.25
69324;DHT22;56470;47.350;8.718;2023-07-29T02:55:40;19.99;78.21
69324;DHT22;56470;47.350;8.718;2023-07-29T02:58:06;19.95;78.44
69324;DHT22;56470;47.350;8.718;2023-07-29T03:00:32;19.92;78.72
69324;DHT22;56470;47.350;8.718;2023-07-29T03:02:58;19.94;78.99
69324;DHT22;56470;47.350;8.718;2023-07-29T03:05:23;19.85;78.89
69324;DHT22;56470;47.350;8.718;2023-07-29T03:07:49;19.77;78.86
69324;DHT22;56470;47.350;8.718;2023-07-29T03:10:14;19.60;79.90
69324;DHT22;56470;47.350;8.718;2023-07-29T03:12:40;19.47;79.89
69324;DHT22;56470;47.350;8.718;2023-07-29T03:15:06;19.40;80.10
69324;DHT22;56470;47.350;8.718;2023-07-29T03:17:31;19.37;80.12
69324;DHT22;56470;47.350;8.718;2023-07-29T03:19:56;19.41;80.33
69324;DHT22;56470;47.350;8.718;2023-07-29T03:22:22;19.45;80.44
69324;DHT22;56470;47.350;8.718;2023-07-29T03:24:47;19.51;80.51
69324;DHT22;56470;47.350;8.718;2023-07-29T03:27:12;19.58;80.51
69324;DHT22;56470;47.350;8.718;2023-07-29T03:29:40;19.63;80.44
69324;DHT22;56470;47.350;8.718;2023-07-29T03:32:05;19.63;79.99
69324;DHT22;56470;47.350;8.718;2023-07-29T03:34:31;19.64;79.74
69324;DHT22;56470;47.350;8.718;2023-07-29T03:36:57;19.61;80.15
69324;DHT22;56470;47.350;8.718;2023-07-29T03:39:22;19.58;80.25
69324;DHT22;56470;47.350;8.718;2023-07-29T03:41:48;19.51;80.55
69324;DHT22;56470;47.350;8.718;2023-07-29T03:44:13;19.41;80.61
69324;DHT22;56470;47.350;8.718;2023-07-29T03:46:38;19.36;80.68
69324;DHT22;56470;47.350;8.718;2023-07-29T03:49:04;19.26;81.39
69324;DHT22;56470;47.350;8.718;2023-07-29T03:51:29;19.20;81.35
69324;DHT22;56470;47.350;8.718;2023-07-29T03:53:54;19.19;81.53
69324;DHT22;56470;47.350;8.718;2023-07-29T03:56:20;19.18;81.48
69324;DHT22;56470;47.350;8.718;2023-07-29T03:58:46;19.13;81.45
69324;DHT22;56470;47.350;8.718;2023-07-29T04:01:12;19.12;81.65
69324;DHT22;56470;47.350;8.718;2023-07-29T04:03:37;19.06;81.84
69324;DHT22;56470;47.350;8.718;2023-07-29T04:06:02;19.06;81.92
69324;DHT22;56470;47.350;8.718;2023-07-29T04:08:28;19.02;81.97
69324;DHT22;56470;47.350;8.718;2023-07-29T04:10:53;19.01;81.90
69324;DHT22;56470;47.350;8.718;2023-07-29T04:13:18;18.99;81.91
69324;DHT22;56470;47.350;8.718;2023-07-29T04:15:44;19.01;81.97
69324;DHT22;56470;47.350;8.718;2023-07-29T04:18:10;19.05;81.95
69324;DHT22;56470;47.350;8.718;2023-07-29T04:20:35;19.06;82.03
69324;DHT22;56470;47.350;8.718;2023-07-29T04:23:00;19.09;81.88
69324;DHT22;56470;47.350;8.718;2023-07-29T04:25:26;19.12;81.88
69324;DHT22;56470;47.350;8.718;2023-07-29T04:27:51;19.13;81.80
69324;DHT22;56470;47.350;8.718;2023-07-29T04:30:16;19.16;81.77
69324;DHT22;56470;47.350;8.718;2023-07-29T04:32:41;19.23;81.61
69324;DHT22;56470;47.350;8.718;2023-07-29T04:35:08;19.27;81.49
69324;DHT22;56470;47.350;8.718;2023-07-29T04:37:34;19.34;81.49
69324;DHT22;56470;47.350;8.718;2023-07-29T04:39:59;19.41;81.51
69324;DHT22;56470;47.350;8.718;2023-07-29T04:42:24;19.45;81.26
69324;DHT22;56470;47.350;8.718;2023-07-29T04:44:50;19.50;81.14
69324;DHT22;56470;47.350;8.718;2023-07-29T04:47:15;19.54;81.29
69324;DHT22;56470;47.350;8.718;2023-07-29T04:49:40;19.53;81.08
69324;DHT22;56470;47.350;8.718;2023-07-29T04:52:06;19.53;81.09
69324;DHT22;56470;47.350;8.718;2023-07-29T04:54:31;19.53;81.03
69324;DHT22;56470;47.350;8.718;2023-07-29T04:56:57;19.53;81.00
69324;DHT22;56470;47.350;8.718;2023-07-29T04:59:22;19.54;80.92
69324;DHT22;56470;47.350;8.718;2023-07-29T05:01:47;19.57;80.94
69324;DHT22;56470;47.350;8.718;2023-07-29T05:04:13;19.57;80.78
69324;DHT22;56470;47.350;8.718;2023-07-29T05:06:38;19.58;80.59
69324;DHT22;56470;47.350;8.718;2023-07-29T05:09:13;19.63;80.75
69324;DHT22;56470;47.350;8.718;2023-07-29T05:11:39;19.67;80.57
69324;DHT22;56470;47.350;8.718;2023-07-29T05:14:05;19.70;80.64
69324;DHT22;56470;47.350;8.718;2023-07-29T05:16:31;19.82;80.54
69324;DHT22;56470;47.350;8.718;2023-07-29T05:18:56;19.89;80.51
69324;DHT22;56470;47.350;8.718;2023-07-29T05:21:22;19.95;80.32
69324;DHT22;56470;47.350;8.718;2023-07-29T05:23:47;19.99;80.33
69324;DHT22;56470;47.350;8.718;2023-07-29T05:26:12;20.08;80.37
69324;DHT22;56470;47.350;8.718;2023-07-29T05:28:37;20.06;80.10
69324;DHT22;56470;47.350;8.718;2023-07-29T05:31:03;20.08;80.17
69324;DHT22;56470;47.350;8.718;2023-07-29T05:33:28;20.06;80.05
69324;DHT22;56470;47.350;8.718;2023-07-29T05:35:54;20.02;80.08
69324;DHT22;56470;47.350;8.718;2023-07-29T05:38:19;19.99;80.25
69324;DHT22;56470;47.350;8.718;2023-07-29T05:40:44;19.95;80.14
69324;DHT22;56470;47.350;8.718;2023-07-29T05:43:10;19.96;80.03
69324;DHT22;56470;47.350;8.718;2023-07-29T05:45:35;19.89;79.83
69324;DHT22;56470;47.350;8.718;2023-07-29T05:48:01;19.85;79.97
69324;DHT22;56470;47.350;8.718;2023-07-29T05:50:26;19.82;79.92
69324;DHT22;56470;47.350;8.718;2023-07-29T05:52:52;19.78;80.09
69324;DHT22;56470;47.350;8.718;2023-07-29T05:55:17;19.82;80.08
69324;DHT22;56470;47.350;8.718;2023-07-29T05:57:42;19.81;80.20
69324;DHT22;56470;47.350;8.718;2023-07-29T06:00:08;19.82;80.28
69324;DHT22;56470;47.350;8.718;2023-07-29T06:02:33;19.86;80.33
69324;DHT22;56470;47.350;8.718;2023-07-29T06:04:59;19.91;80.15
69324;DHT22;56470;47.350;8.718;2023-07-29T06:07:25;19.92;80.14
69324;DHT22;56470;47.350;8.718;2023-07-29T06:09:54;19.99;80.07
69324;DHT22;56470;47.350;8.718;2023-07-29T06:12:20;20.02;80.12
69324;DHT22;56470;47.350;8.718;2023-07-29T06:14:45;20.01;79.86
69324;DHT22;56470;47.350;8.718;2023-07-29T06:17:11;20.01;79.95
69324;DHT22;56470;47.350;8.718;2023-07-29T06:19:36;20.04;79.82
69324;DHT22;56470;47.350;8.718;2023-07-29T06:22:02;20.02;79.98
69324;DHT22;56470;47.350;8.718;2023-07-29T06:24:27;19.98;79.83
69324;DHT22;56470;47.350;8.718;2023-07-29T06:26:53;19.99;79.75
69324;DHT22;56470;47.350;8.718;2023-07-29T06:29:18;20.04;79.55
69324;DHT22;56470;47.350;8.718;2023-07-29T06:31:43;20.09;79.50
69324;DHT22;56470;47.350;8.718;2023-07-29T06:34:08;20.13;79.40
69324;DHT22;56470;47.350;8.718;2023-07-29T06:36:35;20.18;79.36
69324;DHT22;56470;47.350;8.718;2023-07-29T06:39:00;20.19;79.29
69324;DHT22;56470;47.350;8.718;2023-07-29T06:41:26;20.23;79.10
69324;DHT22;56470;47.350;8.718;2023-07-29T06:43:51;20.23;79.12
69324;DHT22;56470;47.350;8.718;2023-07-29T06:46:16;20.25;79.12
69324;DHT22;56470;47.350;8.718;2023-07-29T06:48:42;20.26;79.16
69324;DHT22;56470;47.350;8.718;2023-07-29T06:51:07;20.33;79.27
69324;DHT22;56470;47.350;8.718;2023-07-29T06:53:32;20.34;79.19
69324;DHT22;56470;47.350;8.718;2023-07-29T06:55:58;20.46;79.13
69324;DHT22;56470;47.350;8.718;2023-07-29T06:58:24;20.54;79.24
69324;DHT22;56470;47.350;8.718;2023-07-29T07:00:49;20.61;79.21
69324;DHT22;56470;47.350;8.718;2023-07-29T07:03:14;20.68;79.14
69324;DHT22;56470;47.350;8.718;2023-07-29T07:05:39;20.73;79.01
69324;DHT22;56470;47.350;8.718;2023-07-29T07:08:05;20.77;78.80
69324;DHT22;56470;47.350;8.718;2023-07-29T07:10:30;20.80;78.87
69324;DHT22;56470;47.350;8.718;2023-07-29T07:12:55;20.88;78.72
69324;DHT22;56470;47.350;8.718;2023-07-29T07:15:21;20.94;78.40
69324;DHT22;56470;47.350;8.718;2023-07-29T07:17:46;21.06;78.31
69324;DHT22;56470;47.350;8.718;2023-07-29T07:20:11;21.18;78.09
69324;DHT22;56470;47.350;8.718;2023-07-29T07:22:36;21.23;77.77
69324;DHT22;56470;47.350;8.718;2023-07-29T07:25:02;21.26;77.71
69324;DHT22;56470;47.350;8.718;2023-07-29T07:27:28;21.27;77.68
69324;DHT22;56470;47.350;8.718;2023-07-29T07:29:53;21.33;77.75
69324;DHT22;56470;47.350;8.718;2023-07-29T07:32:18;21.35;77.59
69324;DHT22;56470;47.350;8.718;2023-07-29T07:34:43;21.37;77.63
69324;DHT22;56470;47.350;8.718;2023-07-29T07:37:09;21.37;77.69
69324;DHT22;56470;47.350;8.718;2023-07-29T07:39:34;21.39;77.52
69324;DHT22;56470;47.350;8.718;2023-07-29T07:41:59;21.39;77.52
69324;DHT22;56470;47.350;8.718;2023-07-29T07:44:25;21.40;77.47
69324;DHT22;56470;47.350;8.718;2023-07-29T07:46:52;21.46;77.55
69324;DHT22;56470;47.350;8.718;2023-07-29T07:49:17;21.54;77.59
69324;DHT22;56470;47.350;8.718;2023-07-29T07:51:43;21.71;77.43
69324;DHT22;56470;47.350;8.718;2023-07-29T07:54:09;21.84;77.15
69324;DHT22;56470;47.350;8.718;2023-07-29T07:56:34;22.01;76.74
69324;DHT22;56470;47.350;8.718;2023-07-29T07:58:59;22.10;76.80
69324;DHT22;56470;47.350;8.718;2023-07-29T08:01:24;22.19;76.67
69324;DHT22;56470;47.350;8.718;2023-07-29T08:03:50;22.25;76.60
69324;DHT22;56470;47.350;8.718;2023-07-29T08:06:15;22.20;76.35
69324;DHT22;56470;47.350;8.718;2023-07-29T08:08:40;22.25;76.37
69324;DHT22;56470;47.350;8.718;2023-07-29T08:11:05;22.23;76.39
69324;DHT22;56470;47.350;8.718;2023-07-29T08:13:31;22.26;76.52
69324;DHT22;56470;47.350;8.718;2023-07-29T08:15:56;22.28;76.60
69324;DHT22;56470;47.350;8.718;2023-07-29T08:18:21;22.35;76.59
69324;DHT22;56470;47.350;8.718;2023-07-29T08:20:54;22.39;77.07
69324;DHT22;56470;47.350;8.718;2023-07-29T08:23:21;22.42;76.46
69324;DHT22;56470;47.350;8.718;2023-07-29T08:25:52;22.47;76.46
69324;DHT22;56470;47.350;8.718;2023-07-29T08:28:17;22.44;76.49
69324;DHT22;56470;47.350;8.718;2023-07-29T08:30:42;22.50;76.61
69324;DHT22;56470;47.350;8.718;2023-07-29T08:33:08;22.53;76.54
69324;DHT22;56470;47.350;8.718;2023-07-29T08:35:33;22.60;76.29
69324;DHT22;56470;47.350;8.718;2023-07-29T08:37:58;22.63;76.14
69324;DHT22;56470;47.350;8.718;2023-07-29T08:40:27;22.65;76.16
69324;DHT22;56470;47.350;8.718;2023-07-29T08:42:55;22.72;76.07
69324;DHT22;56470;47.350;8.718;2023-07-29T08:45:22;22.81;76.15
69324;DHT22;56470;47.350;8.718;2023-07-29T08:47:50;22.87;75.74
69324;DHT22;56470;47.350;8.718;2023-07-29T08:50:18;22.98;75.74
69324;DHT22;56470;47.350;8.718;2023-07-29T08:52:44;23.09;75.65
69324;DHT22;56470;47.350;8.718;2023-07-29T08:55:10;23.29;75.20
69324;DHT22;56470;47.350;8.718;2023-07-29T08:57:36;23.50;74.83
69324;DHT22;56470;47.350;8.718;2023-07-29T09:00:01;23.75;74.31
69324;DHT22;56470;47.350;8.718;2023-07-29T09:02:27;24.04;73.41
69324;DHT22;56470;47.350;8.718;2023-07-29T09:04:53;24.33;72.52
69324;DHT22;56470;47.350;8.718;2023-07-29T09:07:19;24.56;71.85
69324;DHT22;56470;47.350;8.718;2023-07-29T09:09:44;24.81;71.35
69324;DHT22;56470;47.350;8.718;2023-07-29T09:12:10;25.04;70.50
69324;DHT22;56470;47.350;8.718;2023-07-29T09:14:37;25.18;69.97
69324;DHT22;56470;47.350;8.718;2023-07-29T09:17:02;25.39;69.63
69324;DHT22;56470;47.350;8.718;2023-07-29T09:19:27;25.57;69.27
69324;DHT22;56470;47.350;8.718;2023-07-29T09:21:52;25.84;68.17
69324;DHT22;56470;47.350;8.718;2023-07-29T09:24:18;26.09;67.57
69324;DHT22;56470;47.350;8.718;2023-07-29T09:26:50;26.16;65.93
69324;DHT22;56470;47.350;8.718;2023-07-29T09:29:15;26.29;66.62
69324;DHT22;56470;47.350;8.718;2023-07-29T09:31:41;26.33;66.37
69324;DHT22;56470;47.350;8.718;2023-07-29T09:34:06;26.42;66.12
69324;DHT22;56470;47.350;8.718;2023-07-29T09:36:33;26.57;65.88
69324;DHT22;56470;47.350;8.718;2023-07-29T09:38:59;26.81;65.73
69324;DHT22;56470;47.350;8.718;2023-07-29T09:41:28;26.87;64.66
69324;DHT22;56470;47.350;8.718;2023-07-29T09:43:57;26.78;64.26
69324;DHT22;56470;47.350;8.718;2023-07-29T09:46:24;26.64;63.81
69324;DHT22;56470;47.350;8.718;2023-07-29T09:48:53;26.52;63.64
69324;DHT22;56470;47.350;8.718;2023-07-29T09:51:19;26.37;63.99
69324;DHT22;56470;47.350;8.718;2023-07-29T09:53:46;26.29;64.00
69324;DHT22;56470;47.350;8.718;2023-07-29T09:56:12;26.14;64.26
69324;DHT22;56470;47.350;8.718;2023-07-29T09:58:38;26.02;64.34
69324;DHT22;56470;47.350;8.718;2023-07-29T10:01:07;25.91;63.93
69324;DHT22;56470;47.350;8.718;2023-07-29T10:03:44;25.80;63.79
69324;DHT22;56470;47.350;8.718;2023-07-29T10:06:34;25.70;64.31
69324;DHT22;56470;47.350;8.718;2023-07-29T10:09:02;25.66;64.34
69324;DHT22;56470;47.350;8.718;2023-07-29T10:11:28;25.66;64.17
69324;DHT22;56470;47.350;8.718;2023-07-29T10:13:58;25.63;64.04
69324;DHT22;56470;47.350;8.718;2023-07-29T10:16:25;25.61;64.17
69324;DHT22;56470;47.350;8.718;2023-07-29T10:18:52;25.63;64.34
69324;DHT22;56470;47.350;8.718;2023-07-29T10:21:28;25.67;64.26
69324;DHT22;56470;47.350;8.718;2023-07-29T10:23:56;25.75;64.31
69324;DHT22;56470;47.350;8.718;2023-07-29T10:26:32;25.82;64.25
69324;DHT22;56470;47.350;8.718;2023-07-29T10:28:59;25.92;64.04
69324;DHT22;56470;47.350;8.718;2023-07-29T10:38:30;26.15;62.57
69324;DHT22;56470;47.350;8.718;2023-07-29T10:47:50;26.33;61.14
69324;DHT22;56470;47.350;8.718;2023-07-29T10:54:02;26.46;61.82
69324;DHT22;56470;47.350;8.718;2023-07-29T10:56:49;26.60;62.21
69324;DHT22;56470;47.350;8.718;2023-07-29T11:01:56;26.69;62.42
69324;DHT22;56470;47.350;8.718;2023-07-29T11:04:29;26.70;61.51
69324;DHT22;56470;47.350;8.718;2023-07-29T11:24:43;26.15;62.16
69324;DHT22;56470;47.350;8.718;2023-07-29T11:27:12;26.06;62.85
69324;DHT22;56470;47.350;8.718;2023-07-29T11:29:37;25.97;63.38
69324;DHT22;56470;47.350;8.718;2023-07-29T11:32:03;25.88;64.25
69324;DHT22;56470;47.350;8.718;2023-07-29T11:34:34;25.75;65.98
69324;DHT22;56470;47.350;8.718;2023-07-29T11:37:01;25.64;65.69
69324;DHT22;56470;47.350;8.718;2023-07-29T11:39:27;25.49;66.16
69324;DHT22;56470;47.350;8.718;2023-07-29T11:41:52;24.81;67.40
69324;DHT22;56470;47.350;8.718;2023-07-29T11:44:18;23.32;68.30
69324;DHT22;56470;47.350;8.718;2023-07-29T11:46:43;21.60;75.30
69324;DHT22;56470;47.350;8.718;2023-07-29T11:49:09;21.01;78.25
69324;DHT22;56470;47.350;8.718;2023-07-29T11:51:36;20.57;79.17
69324;DHT22;56470;47.350;8.718;2023-07-29T11:54:01;20.23;79.71
69324;DHT22;56470;47.350;8.718;2023-07-29T11:56:27;19.73;79.82
69324;DHT22;56470;47.350;8.718;2023-07-29T11:58:53;19.19;82.35
69324;DHT22;56470;47.350;8.718;2023-07-29T12:01:19;18.96;85.41
69324;DHT22;56470;47.350;8.718;2023-07-29T12:03:44;19.03;85.15
69324;DHT22;56470;47.350;8.718;2023-07-29T12:06:10;19.23;85.86
69324;DHT22;56470;47.350;8.718;2023-07-29T12:08:35;19.43;85.65
69324;DHT22;56470;47.350;8.718;2023-07-29T12:11:01;19.50;85.62
69324;DHT22;56470;47.350;8.718;2023-07-29T12:13:26;19.46;85.33
69324;DHT22;56470;47.350;8.718;2023-07-29T12:15:51;19.46;85.64
69324;DHT22;56470;47.350;8.718;2023-07-29T12:18:17;19.45;85.19
69324;DHT22;56470;47.350;8.718;2023-07-29T12:20:43;19.47;85.67
69324;DHT22;56470;47.350;8.718;2023-07-29T12:23:08;19.58;85.58
69324;DHT22;56470;47.350;8.718;2023-07-29T12:25:34;19.63;85.29
69324;DHT22;56470;47.350;8.718;2023-07-29T12:28:04;19.57;84.60
69324;DHT22;56470;47.350;8.718;2023-07-29T12:30:30;19.57;84.49
69324;DHT22;56470;47.350;8.718;2023-07-29T12:32:55;19.58;84.08
69324;DHT22;56470;47.350;8.718;2023-07-29T12:35:20;19.77;83.62
69324;DHT22;56470;47.350;8.718;2023-07-29T12:37:46;19.88;82.34
69324;DHT22;56470;47.350;8.718;2023-07-29T12:40:25;19.96;81.32
69324;DHT22;56470;47.350;8.718;2023-07-29T12:42:51;20.15;82.93
69324;DHT22;56470;47.350;8.718;2023-07-29T12:45:17;20.30;83.24
69324;DHT22;56470;47.350;8.718;2023-07-29T12:47:43;20.41;82.60
69324;DHT22;56470;47.350;8.718;2023-07-29T12:50:08;20.56;83.24
69324;DHT22;56470;47.350;8.718;2023-07-29T12:52:34;20.68;83.44
69324;DHT22;56470;47.350;8.718;2023-07-29T12:54:59;20.78;82.69
69324;DHT22;56470;47.350;8.718;2023-07-29T12:57:24;20.85;82.52
69324;DHT22;56470;47.350;8.718;2023-07-29T12:59:49;20.91;82.18
69324;DHT22;56470;47.350;8.718;2023-07-29T13:02:15;20.95;82.40
69324;DHT22;56470;47.350;8.718;2023-07-29T13:04:40;21.02;82.66
69324;DHT22;56470;47.350;8.718;2023-07-29T13:07:05;21.06;82.41
69324;DHT22;56470;47.350;8.718;2023-07-29T13:09:31;21.10;82.57
69324;DHT22;56470;47.350;8.718;2023-07-29T13:11:57;21.16;82.70
69324;DHT22;56470;47.350;8.718;2023-07-29T13:14:22;21.22;82.83
69324;DHT22;56470;47.350;8.718;2023-07-29T13:16:47;21.25;82.88
69324;DHT22;56470;47.350;8.718;2023-07-29T13:19:13;21.26;82.80
69324;DHT22;56470;47.350;8.718;2023-07-29T13:21:38;21.25;82.64
69324;DHT22;56470;47.350;8.718;2023-07-29T13:24:03;21.29;82.62
69324;DHT22;56470;47.350;8.718;2023-07-29T13:26:29;21.29;82.32
69324;DHT22;56470;47.350;8.718;2023-07-29T13:28:54;21.33;82.03
69324;DHT22;56470;47.350;8.718;2023-07-29T13:31:21;21.37;81.76
69324;DHT22;56470;47.350;8.718;2023-07-29T13:33:46;21.37;81.44
69324;DHT22;56470;47.350;8.718;2023-07-29T13:36:11;21.39;81.34
69324;DHT22;56470;47.350;8.718;2023-07-29T13:38:36;21.44;81.35
69324;DHT22;56470;47.350;8.718;2023-07-29T13:41:02;21.49;81.33
69324;DHT22;56470;47.350;8.718;2023-07-29T13:43:27;21.53;80.97
69324;DHT22;56470;47.350;8.718;2023-07-29T13:45:53;21.54;81.02
69324;DHT22;56470;47.350;8.718;2023-07-29T13:48:18;21.54;80.65
69324;DHT22;56470;47.350;8.718;2023-07-29T13:50:44;21.58;80.73
69324;DHT22;56470;47.350;8.718;2023-07-29T13:53:10;21.60;80.31
69324;DHT22;56470;47.350;8.718;2023-07-29T13:55:36;21.61;80.54
69324;DHT22;56470;47.350;8.718;2023-07-29T13:58:01;21.63;80.08
69324;DHT22;56470;47.350;8.718;2023-07-29T14:00:27;21.55;79.82
69324;DHT22;56470;47.350;8.718;2023-07-29T14:02:52;21.57;79.70
69324;DHT22;56470;47.350;8.718;2023-07-29T14:05:17;21.43;79.65
69324;DHT22;56470;47.350;8.718;2023-07-29T14:07:42;21.36;79.91
69324;DHT22;56470;47.350;8.718;2023-07-29T14:10:08;21.35;79.87
69324;DHT22;56470;47.350;8.718;2023-07-29T14:12:33;21.29;79.87
69324;DHT22;56470;47.350;8.718;2023-07-29T14:14:59;21.25;79.94
69324;DHT22;56470;47.350;8.718;2023-07-29T14:17:24;21.08;80.11
69324;DHT22;56470;47.350;8.718;2023-07-29T14:19:50;21.02;80.18
69324;DHT22;56470;47.350;8.718;2023-07-29T14:22:15;21.08;80.20
69324;DHT22;56470;47.350;8.718;2023-07-29T14:24:40;21.08;80.35
69324;DHT22;56470;47.350;8.718;2023-07-29T14:27:05;21.13;80.30
69324;DHT22;56470;47.350;8.718;2023-07-29T14:29:31;21.16;80.29
69324;DHT22;56470;47.350;8.718;2023-07-29T14:31:56;21.19;80.04
69324;DHT22;56470;47.350;8.718;2023-07-29T14:34:22;21.20;79.98
69324;DHT22;56470;47.350;8.718;2023-07-29T14:36:47;21.25;79.85
69324;DHT22;56470;47.350;8.718;2023-07-29T14:39:13;21.32;79.89
69324;DHT22;56470;47.350;8.718;2023-07-29T14:41:38;21.35;79.89
69324;DHT22;56470;47.350;8.718;2023-07-29T14:44:03;21.33;79.97
69324;DHT22;56470;47.350;8.718;2023-07-29T14:46:29;21.36;80.02
69324;DHT22;56470;47.350;8.718;2023-07-29T14:48:54;21.26;79.82
69324;DHT22;56470;47.350;8.718;2023-07-29T14:51:19;21.20;80.22
69324;DHT22;56470;47.350;8.718;2023-07-29T14:53:45;21.18;80.26
69324;DHT22;56470;47.350;8.718;2023-07-29T14:56:10;21.16;80.37
69324;DHT22;56470;47.350;8.718;2023-07-29T14:58:35;21.22;80.52
69324;DHT22;56470;47.350;8.718;2023-07-29T15:01:01;21.33;80.72
69324;DHT22;56470;47.350;8.718;2023-07-29T15:03:26;21.42;80.56
69324;DHT22;56470;47.350;8.718;2023-07-29T15:05:51;21.46;80.32
69324;DHT22;56470;47.350;8.718;2023-07-29T15:08:17;21.46;80.19
69324;DHT22;56470;47.350;8.718;2023-07-29T15:10:49;21.49;79.76
69324;DHT22;56470;47.350;8.718;2023-07-29T15:13:15;21.44;79.53
69324;DHT22;56470;47.350;8.718;2023-07-29T15:15:41;21.37;79.97
69324;DHT22;56470;47.350;8.718;2023-07-29T15:18:06;21.33;80.22
69324;DHT22;56470;47.350;8.718;2023-07-29T15:20:32;21.29;80.52
69324;DHT22;56470;47.350;8.718;2023-07-29T15:22:57;21.23;80.87
69324;DHT22;56470;47.350;8.718;2023-07-29T15:25:22;21.13;81.05
69324;DHT22;56470;47.350;8.718;2023-07-29T15:27:47;20.95;81.48
69324;DHT22;56470;47.350;8.718;2023-07-29T15:30:13;20.88;81.78
69324;DHT22;56470;47.350;8.718;2023-07-29T15:32:38;20.84;82.22
69324;DHT22;56470;47.350;8.718;2023-07-29T15:35:03;20.84;82.53
69324;DHT22;56470;47.350;8.718;2023-07-29T15:37:29;20.78;82.88
69324;DHT22;56470;47.350;8.718;2023-07-29T15:39:54;20.80;83.07
69324;DHT22;56470;47.350;8.718;2023-07-29T15:42:19;20.77;83.19
69324;DHT22;56470;47.350;8.718;2023-07-29T15:44:45;20.74;83.28
69324;DHT22;56470;47.350;8.718;2023-07-29T15:47:10;20.71;83.49
69324;DHT22;56470;47.350;8.718;2023-07-29T15:49:38;20.64;83.89
69324;DHT22;56470;47.350;8.718;2023-07-29T15:52:03;20.57;84.03
69324;DHT22;56470;47.350;8.718;2023-07-29T15:54:29;20.57;84.21
69324;DHT22;56470;47.350;8.718;2023-07-29T15:56:54;20.56;84.08
69324;DHT22;56470;47.350;8.718;2023-07-29T15:59:19;20.54;84.32
69324;DHT22;56470;47.350;8.718;2023-07-29T16:01:44;20.60;84.45
69324;DHT22;56470;47.350;8.718;2023-07-29T16:04:10;20.64;84.18
69324;DHT22;56470;47.350;8.718;2023-07-29T16:06:35;20.65;84.52
69324;DHT22;56470;47.350;8.718;2023-07-29T16:09:03;20.63;84.26
69324;DHT22;56470;47.350;8.718;2023-07-29T16:11:31;20.58;84.46